Time;durP1;ratioP1;P1;durP2;ratioP2;P2;SDS_P1;SDS_P2;PMS_P1;PMS_P2;Temp;Humidity;BMP_temperature;BMP_pressure;BME280_temperature;BME280_humidity;BME280_pressure;Samples;Min_cycle;Max_cycle;Signal;HPM_P1;HPM_P2
2022/11/21 07:51:28;;;;;;;2.60;0.80;;;6.40;99.90;;;;;;5088735;27;20327;-50
2022/11/21 07:53:53;;;;;;;2.07;0.70;;;6.70;99.90;;;;;;5072859;28;20174;-55
2022/11/21 07:56:19;;;;;;;0.70;0.70;;;6.10;99.90;;;;;;5050169;28;20265;-54
2022/11/21 07:58:45;;;;;;;0.73;0.63;;;5.80;99.90;;;;;;5050822;28;20183;-53
2022/11/21 08:01:10;;;;;;;0.70;0.70;;;5.80;99.90;;;;;;5050929;28;20679;-55
2022/11/21 08:03:36;;;;;;;0.83;0.70;;;5.80;99.90;;;;;;5050472;28;20640;-55
2022/11/21 08:06:03;;;;;;;0.70;0.70;;;5.80;99.90;;;;;;5052270;28;20620;-53
2022/11/21 08:08:29;;;;;;;1.03;0.70;;;5.80;99.90;;;;;;5053549;28;20313;-57
2022/11/21 08:10:54;;;;;;;0.70;0.70;;;6.00;99.90;;;;;;5053275;28;20218;-54
2022/11/21 08:13:20;;;;;;;0.70;0.70;;;6.40;99.90;;;;;;5052971;28;20183;-58
2022/11/21 08:15:45;;;;;;;1.23;0.90;;;6.50;99.90;;;;;;5052203;28;20199;-57
2022/11/21 08:18:13;;;;;;;0.80;0.80;;;6.30;99.90;;;;;;5052459;28;20543;-54
2022/11/21 08:20:39;;;;;;;0.60;0.60;;;6.40;99.90;;;;;;5053195;28;20195;-55
2022/11/21 08:23:05;;;;;;;0.70;0.70;;;6.50;99.90;;;;;;5053349;28;20231;-57
2022/11/21 08:25:33;;;;;;;2.57;0.97;;;6.40;99.90;;;;;;5052316;28;20187;-57
2022/11/21 08:28:00;;;;;;;1.70;1.07;;;6.10;99.90;;;;;;5050621;28;20171;-58
2022/11/21 08:30:26;;;;;;;1.17;1.07;;;5.90;99.90;;;;;;5049994;28;20175;-52
2022/11/21 08:32:52;;;;;;;1.37;1.13;;;5.80;99.90;;;;;;5044712;28;20310;-53
2022/11/21 08:35:17;;;;;;;1.23;1.03;;;5.70;99.90;;;;;;5046990;28;20668;-58
2022/11/21 08:37:43;;;;;;;0.90;0.90;;;5.70;99.90;;;;;;5049444;28;20349;-54
2022/11/21 08:40:09;;;;;;;1.73;1.10;;;5.70;99.90;;;;;;5050238;28;20191;-52
2022/11/21 08:42:36;;;;;;;1.10;1.10;;;5.70;99.90;;;;;;5049970;28;20198;-55
2022/11/21 08:45:03;;;;;;;1.00;1.00;;;5.60;99.90;;;;;;5048673;28;20660;-56
2022/11/21 08:47:32;;;;;;;1.37;1.27;;;5.60;99.90;;;;;;5049835;28;20309;-55
2022/11/21 08:49:57;;;;;;;2.00;1.10;;;5.80;99.90;;;;;;5056327;28;20198;-52
2022/11/21 08:52:23;;;;;;;1.20;1.10;;;6.00;99.90;;;;;;5070178;28;20208;-53
2022/11/21 08:54:48;;;;;;;1.30;1.20;;;5.80;99.90;;;;;;5069677;28;20199;-57
2022/11/21 08:57:14;;;;;;;1.60;1.40;;;5.70;99.90;;;;;;5070598;28;20186;-54
2022/11/21 08:59:40;;;;;;;1.93;1.30;;;5.60;99.90;;;;;;5070175;28;20205;-53
2022/11/21 09:02:06;;;;;;;2.27;1.40;;;5.60;99.90;;;;;;5042103;28;20167;-56
2022/11/21 09:04:31;;;;;;;1.80;1.37;;;5.70;99.90;;;;;;5055665;28;20696;-55
2022/11/21 09:06:57;;;;;;;1.30;1.00;;;5.70;99.90;;;;;;5054628;28;20206;-54
2022/11/21 09:09:22;;;;;;;1.70;1.20;;;5.80;99.90;;;;;;5055372;28;20182;-51
2022/11/21 09:11:48;;;;;;;1.40;1.20;;;5.50;99.90;;;;;;5055338;28;20184;-56
2022/11/21 09:19:41;;;;;;;0.97;0.97;;;5.50;99.90;;;;;;5057356;28;20205;-52
2022/11/21 09:22:07;;;;;;;1.20;1.10;;;7.00;99.90;;;;;;5040864;28;20183;-59
2022/11/21 09:24:32;;;;;;;1.87;1.13;;;5.90;99.90;;;;;;5060549;28;20230;-54
2022/11/21 09:26:58;;;;;;;2.27;1.20;;;5.90;99.90;;;;;;5059344;28;20168;-55
2022/11/21 09:29:24;;;;;;;1.73;1.10;;;6.00;99.90;;;;;;5055858;28;20179;-55
2022/11/21 09:31:49;;;;;;;1.40;1.20;;;6.00;99.90;;;;;;5058657;28;20186;-57
2022/11/21 09:34:15;;;;;;;2.80;1.37;;;6.00;99.90;;;;;;5059363;28;20223;-59
2022/11/21 09:36:40;;;;;;;1.13;1.03;;;5.90;99.90;;;;;;5058259;28;20179;-51
2022/11/21 09:39:06;;;;;;;2.03;1.10;;;5.90;99.90;;;;;;5058390;28;20171;-61
2022/11/21 09:42:00;;;;;;;1.20;1.10;;;6.10;99.90;;;;;;5058496;28;20203;-59
2022/11/21 09:44:54;;;;;;;1.37;1.23;;;6.20;99.90;;;;;;5058147;28;20253;-58
2022/11/21 09:47:31;;;;;;;1.83;1.37;;;6.40;99.90;;;;;;5060558;28;20511;-56
2022/11/21 09:50:12;;;;;;;1.20;1.07;;;6.60;99.90;;;;;;5058698;28;20194;-56
2022/11/21 09:52:38;;;;;;;3.27;1.20;;;6.50;99.90;;;;;;5059018;28;20171;-58
2022/11/21 09:55:32;;;;;;;1.53;1.10;;;6.30;99.90;;;;;;5059315;28;20615;-57
2022/11/21 09:58:02;;;;;;;1.30;1.00;;;6.40;99.90;;;;;;5059082;28;20175;-59
2022/11/21 10:00:27;;;;;;;1.27;1.13;;;6.50;99.90;;;;;;5059345;28;20195;-59
2022/11/21 10:02:54;;;;;;;2.47;1.20;;;6.30;99.90;;;;;;5058772;28;20182;-57
2022/11/21 10:05:36;;;;;;;1.30;1.20;;;6.30;99.90;;;;;;5057241;28;20219;-60
2022/11/21 10:08:16;;;;;;;1.73;1.07;;;6.30;99.90;;;;;;5055107;28;20591;-56
2022/11/21 10:10:47;;;;;;;1.00;1.00;;;6.50;99.90;;;;;;5054994;28;20178;-57
2022/11/21 10:13:48;;;;;;;1.33;1.23;;;6.90;99.90;;;;;;5053777;28;20184;-55
2022/11/21 10:16:40;;;;;;;2.43;1.10;;;7.30;99.90;;;;;;5012327;28;20242;-52
2022/11/21 10:19:50;;;;;;;1.30;1.10;;;7.50;99.90;;;;;;5012311;28;20259;-56
2022/11/21 10:22:42;;;;;;;0.90;0.90;;;7.60;99.90;;;;;;4953755;29;20265;-59
2022/11/21 10:25:12;;;;;;;2.67;1.00;;;8.00;99.90;;;;;;4938287;29;20272;-57
2022/11/21 10:27:50;;;;;;;0.80;0.80;;;8.60;99.90;;;;;;4954764;29;20274;-58
2022/11/21 10:30:21;;;;;;;1.10;1.00;;;8.30;99.90;;;;;;4954260;29;20186;-53
2022/11/21 10:32:55;;;;;;;2.07;1.00;;;7.80;99.90;;;;;;4954575;29;20190;-54
2022/11/21 10:35:20;;;;;;;1.57;1.10;;;7.50;99.90;;;;;;4953709;28;20232;-58
2022/11/21 10:37:51;;;;;;;0.90;0.90;;;7.50;99.90;;;;;;4953654;29;20210;-51
2022/11/21 10:40:26;;;;;;;2.40;1.17;;;7.80;99.90;;;;;;4953944;29;20265;-55
2022/11/21 10:46:03;;;;;;;0.70;0.70;;;8.30;99.90;;;;;;4953826;28;20370;-56
2022/11/21 10:48:29;;;;;;;1.53;0.90;;;7.80;99.90;;;;;;4945524;29;20917;-55
2022/11/21 10:51:12;;;;;;;1.73;0.90;;;7.70;99.90;;;;;;4933780;29;20195;-56
2022/11/21 10:56:25;;;;;;;2.33;1.00;;;7.10;99.90;;;;;;5002356;28;20186;-56
2022/11/21 10:58:58;;;;;;;2.03;1.10;;;7.10;99.90;;;;;;5033919;28;20172;-55
2022/11/21 11:01:31;;;;;;;1.00;0.90;;;7.20;99.90;;;;;;5033362;28;20200;-53
2022/11/21 11:04:16;;;;;;;3.87;1.13;;;7.20;99.90;;;;;;5033176;28;20281;-53
2022/11/21 11:06:44;;;;;;;0.90;0.90;;;7.20;99.90;;;;;;5033331;28;20641;-51
2022/11/21 11:09:32;;;;;;;2.93;1.10;;;7.10;99.90;;;;;;5033484;28;20261;-55
2022/11/21 11:12:22;;;;;;;2.80;1.13;;;7.10;99.90;;;;;;5033617;28;20275;-56
2022/11/21 11:14:54;;;;;;;1.90;1.00;;;7.20;99.90;;;;;;5034410;28;20191;-58
2022/11/21 11:17:31;;;;;;;1.10;1.00;;;7.10;99.90;;;;;;5038272;28;20164;-58
2022/11/21 11:20:28;;;;;;;1.10;1.00;;;7.30;99.90;;;;;;5038069;28;20191;-58
2022/11/21 11:22:54;;;;;;;1.27;1.17;;;3.60;99.90;;;;;;5037506;28;20171;-55
2022/11/21 11:25:21;;;;;;;0.80;0.80;;;;;;;;;;5032584;28;20621;-56
2022/11/21 11:27:47;;;;;;;0.93;0.93;;;;;;;;;;5032572;28;20179;-53
2022/11/21 11:30:16;;;;;;;1.00;1.00;;;7.10;99.90;;;;;;5032534;28;20609;-54
2022/11/21 11:32:42;;;;;;;1.50;1.20;;;7.10;99.90;;;;;;5032066;28;20594;-53
2022/11/21 11:35:21;;;;;;;1.20;1.10;;;7.00;99.90;;;;;;5032603;28;20259;-54
2022/11/21 11:38:03;;;;;;;1.13;0.97;;;6.90;99.90;;;;;;5035158;28;20152;-54
2022/11/21 11:40:31;;;;;;;2.27;1.13;;;7.50;99.90;;;;;;5035138;28;20203;-56
2022/11/21 11:49:10;;;;;;;1.23;0.97;;;9.10;99.90;;;;;;5035747;28;20163;-53
2022/11/21 11:51:40;;;;;;;0.60;0.60;;;8.80;99.90;;;;;;5020433;28;20192;-60
2022/11/21 11:54:17;;;;;;;0.77;0.77;;;9.70;99.90;;;;;;5037796;28;20251;-54
2022/11/21 11:56:44;;;;;;;1.50;0.90;;;10.60;99.90;;;;;;5036411;28;20159;-60
2022/11/21 11:59:26;;;;;;;0.73;0.70;;;11.10;99.90;;;;;;5039447;28;20180;-61
2022/11/21 12:02:01;;;;;;;0.70;0.70;;;11.20;99.90;;;;;;5037724;28;20168;-61
2022/11/21 12:04:32;;;;;;;1.70;0.70;;;11.00;99.90;;;;;;5037716;28;20251;-59
2022/11/21 12:07:21;;;;;;;0.93;0.93;;;11.20;99.90;;;;;;5037792;28;20156;-57
2022/11/21 12:09:56;;;;;;;1.43;0.93;;;10.10;99.90;;;;;;5042114;28;20713;-56
2022/11/21 12:12:44;;;;;;;1.23;0.80;;;9.40;99.90;;;;;;5039947;28;20160;-56
2022/11/21 12:15:48;;;;;;;1.13;0.90;;;9.00;99.90;;;;;;5040162;28;20200;-58
2022/11/21 12:18:14;;;;;;;1.30;0.90;;;9.40;99.90;;;;;;5039772;28;20179;-56
2022/11/21 12:21:10;;;;;;;1.37;1.00;;;9.00;99.90;;;;;;5036981;28;20374;-56
2022/11/21 12:23:58;;;;;;;1.13;1.03;;;8.70;99.90;;;;;;5040038;28;20182;-56
2022/11/21 12:26:30;;;;;;;1.53;1.00;;;8.30;99.90;;;;;;5029130;28;20210;-58
2022/11/21 12:29:14;;;;;;;1.17;1.00;;;8.20;99.90;;;;;;5040425;28;20225;-56
2022/11/21 12:32:22;;;;;;;1.03;0.97;;;8.20;99.90;;;;;;5039682;28;20171;-55
2022/11/21 12:35:09;;;;;;;2.10;0.80;;;8.00;99.90;;;;;;5040667;28;20267;-55
2022/11/21 12:37:56;;;;;;;0.90;0.90;;;7.80;99.90;;;;;;5042581;28;20298;-51
2022/11/21 12:40:21;;;;;;;1.30;1.20;;;7.70;99.90;;;;;;5042910;28;20233;-53
2022/11/21 12:43:19;;;;;;;2.47;1.30;;;8.00;99.90;;;;;;5024920;28;20175;-54
2022/11/21 12:45:54;;;;;;;5.23;1.53;;;7.80;99.90;;;;;;4961427;28;20205;-57
2022/11/21 12:55:28;;;;;;;0.97;0.90;;;7.90;99.90;;;;;;4961383;28;20222;-52
2022/11/21 12:57:53;;;;;;;1.43;1.17;;;8.50;99.90;;;;;;4961503;29;20183;-54
2022/11/21 13:00:25;;;;;;;2.80;0.90;;;8.10;99.90;;;;;;4961887;29;20210;-51
2022/11/21 13:03:28;;;;;;;2.03;1.30;;;8.10;99.90;;;;;;4961672;29;20213;-57
2022/11/21 13:05:56;;;;;;;0.90;0.90;;;8.10;99.90;;;;;;4975484;28;20205;-55
2022/11/21 13:08:26;;;;;;;1.60;1.00;;;8.20;99.90;;;;;;4979869;28;20181;-59
2022/11/21 13:11:57;;;;;;;1.83;1.10;;;8.50;99.90;;;;;;4975339;28;20197;-53
2022/11/21 13:13:46;;;;;;;1.30;1.20;;;8.50;99.90;;;;;;4974315;28;20245;-56
2022/11/21 13:16:35;;;;;;;1.47;0.77;;;8.50;99.90;;;;;;4972999;28;20217;-55
2022/11/21 13:19:15;;;;;;;1.37;1.10;;;8.40;99.90;;;;;;4976892;28;20193;-57
2022/11/21 13:21:46;;;;;;;2.20;1.10;;;8.40;99.90;;;;;;4968598;28;20185;-59
2022/11/21 13:24:44;;;;;;;1.63;1.10;;;8.30;99.90;;;;;;5053203;28;20195;-58
2022/11/21 13:27:25;;;;;;;1.40;1.13;;;8.60;99.90;;;;;;5057846;28;20182;-59
2022/11/21 13:30:22;;;;;;;1.03;0.90;;;8.70;99.90;;;;;;5058472;28;20659;-55
2022/11/21 13:32:53;;;;;;;1.73;1.00;;;9.10;99.90;;;;;;4957871;28;20598;-58
2022/11/21 13:35:18;;;;;;;1.00;0.80;;;9.30;99.90;;;;;;4973410;28;20228;-56
2022/11/21 13:38:08;;;;;;;2.17;0.90;;;10.10;99.90;;;;;;4974256;28;20648;-58
2022/11/21 13:40:36;;;;;;;1.20;0.73;;;11.20;99.90;;;;;;4975418;28;20241;-55
2022/11/21 13:43:08;;;;;;;1.50;0.87;;;11.70;99.90;;;;;;4960932;28;20193;-56
2022/11/21 13:45:36;;;;;;;0.60;0.60;;;11.10;99.90;;;;;;4973064;28;20217;-54
2022/11/21 13:48:29;;;;;;;1.37;0.90;;;11.00;99.90;;;;;;4974146;28;20258;-51
2022/11/21 13:51:19;;;;;;;1.83;1.07;;;10.60;99.90;;;;;;4972213;28;20839;-52
2022/11/21 13:54:06;;;;;;;1.43;1.20;;;10.00;99.90;;;;;;4953030;28;20175;-53
2022/11/21 13:57:09;;;;;;;1.90;1.03;;;10.00;99.90;;;;;;4953425;29;20189;-53
2022/11/21 14:00:12;;;;;;;2.13;1.50;;;9.90;99.90;;;;;;4897035;29;20215;-55
2022/11/21 14:02:59;;;;;;;2.47;0.90;;;10.30;99.90;;;;;;4911467;29;21208;-59
2022/11/21 14:05:59;;;;;;;1.07;0.80;;;10.60;99.90;;;;;;4917354;29;20210;-57
2022/11/21 14:08:27;;;;;;;2.77;0.97;;;11.00;99.90;;;;;;4924646;28;20583;-57
2022/11/21 14:10:55;;;;;;;1.17;0.90;;;10.80;99.90;;;;;;4974087;28;20222;-59
2022/11/21 14:13:30;;;;;;;1.00;0.90;;;10.90;99.90;;;;;;4974946;28;20198;-53
2022/11/21 14:16:17;;;;;;;1.23;0.87;;;11.00;99.90;;;;;;4975027;28;20201;-58
2022/11/21 14:18:44;;;;;;;0.87;0.87;;;11.20;99.90;;;;;;4975158;28;20847;-54
2022/11/21 14:21:31;;;;;;;0.90;0.80;;;11.30;99.90;;;;;;4975816;28;20198;-56
2022/11/21 14:24:04;;;;;;;1.90;1.00;;;11.80;99.90;;;;;;4967088;28;20587;-58
2022/11/21 14:26:39;;;;;;;1.63;1.10;;;11.50;99.90;;;;;;4974653;28;20188;-55
2022/11/21 14:29:25;;;;;;;2.60;1.97;;;11.60;99.90;;;;;;4975304;28;20339;-59
2022/11/21 14:31:51;;;;;;;1.73;1.13;;;7.80;99.90;;;;;;4975598;28;20185;-57
2022/11/21 14:34:31;;;;;;;5.13;4.10;;;11.90;99.90;;;;;;4975463;28;20217;-55
2022/11/21 14:37:00;;;;;;;10.60;8.57;;;11.20;99.90;;;;;;5034530;28;20175;-56
2022/11/21 14:39:27;;;;;;;7.80;6.00;;;11.40;99.90;;;;;;5055805;28;20250;-58
2022/11/21 14:41:55;;;;;;;5.87;5.27;;;11.40;99.90;;;;;;5055932;28;20209;-59
2022/11/21 14:44:22;;;;;;;9.70;7.67;;;11.30;99.90;;;;;;5054960;28;20239;-57
2022/11/21 14:46:50;;;;;;;8.30;6.57;;;11.20;99.90;;;;;;5054984;28;20191;-54
2022/11/21 14:49:15;;;;;;;10.57;7.90;;;11.20;99.90;;;;;;5033677;28;20190;-55
2022/11/21 14:51:46;;;;;;;11.67;9.10;;;10.50;99.90;;;;;;5039700;28;20190;-57
2022/11/21 14:54:19;;;;;;;8.40;5.90;;;;;;;;;;5047621;28;20191;-58
2022/11/21 14:56:53;;;;;;;7.83;4.10;;;;;;;;;;5054246;28;20171;-52
2022/11/21 14:59:41;;;;;;;2.63;2.30;;;10.60;99.90;;;;;;5050837;28;20176;-58
2022/11/21 15:02:15;;;;;;;3.37;2.00;;;;;;;;;;5054813;28;20198;-54
2022/11/21 15:04:43;;;;;;;2.33;1.83;;;;;;;;;;5054122;28;20191;-53
2022/11/21 15:07:27;;;;;;;3.53;2.50;;;10.40;99.90;;;;;;5046020;28;20691;-57
2022/11/21 15:09:53;;;;;;;7.73;4.80;;;;;;;;;;5053558;28;20230;-54
2022/11/21 15:12:41;;;;;;;2.87;2.37;;;10.40;99.90;;;;;;5053866;28;20178;-59
2022/11/21 15:15:26;;;;;;;3.20;2.50;;;;;;;;;;5053072;28;20223;-55
2022/11/21 15:18:00;;;;;;;3.93;2.53;;;10.70;99.90;;;;;;5054134;28;20694;-59
2022/11/21 15:20:27;;;;;;;2.17;2.03;;;;;;;;;;5053912;28;20229;-54
2022/11/21 15:22:55;;;;;;;2.37;2.17;;;;;;;;;;5049643;28;20180;-57
2022/11/21 15:25:23;;;;;;;3.20;2.10;;;10.50;99.90;;;;;;5050456;28;20199;-57
2022/11/21 15:28:08;;;;;;;3.67;2.37;;;10.30;99.90;;;;;;5053434;28;20171;-58
2022/11/21 15:30:35;;;;;;;4.57;2.80;;;;;;;;;;5053481;28;20174;-57
2022/11/21 15:33:01;;;;;;;4.73;2.73;;;;;;;;;;5052271;28;20167;-59
2022/11/21 15:35:28;;;;;;;4.03;3.20;;;;;;;;;;5053302;28;20229;-57
2022/11/21 15:37:54;;;;;;;5.97;3.33;;;;;;;;;;5053387;28;20224;-58
2022/11/21 15:40:20;;;;;;;5.30;3.57;;;;;;;;;;5053464;28;20209;-55
2022/11/21 15:42:46;;;;;;;5.13;3.40;;;;;;;;;;5053358;28;20175;-57
2022/11/21 15:45:14;;;;;;;5.80;3.00;;;9.40;99.90;;;;;;5053925;28;20191;-58
2022/11/21 15:47:40;;;;;;;5.43;2.63;;;;;;;;;;5053814;28;20659;-54
2022/11/21 15:50:07;;;;;;;2.37;1.80;;;;;;;;;;5054013;28;20258;-58
2022/11/21 15:52:43;;;;;;;2.67;1.90;;;;;;;;;;5054458;28;20175;-58
2022/11/21 15:55:16;;;;;;;2.93;2.10;;;;;;;;;;5053268;28;20240;-56
2022/11/21 15:57:42;;;;;;;2.17;1.97;;;;;;;;;;5047970;28;20666;-56
2022/11/21 16:00:08;;;;;;;6.03;3.10;;;8.80;99.90;;;;;;5052786;28;20219;-59
2022/11/21 16:02:34;;;;;;;3.13;2.73;;;;;;;;;;5053933;28;20187;-59
2022/11/21 16:05:00;;;;;;;5.17;2.70;;;;;;;;;;5054051;28;20564;-59
2022/11/21 16:07:26;;;;;;;2.83;2.40;;;;;;;;;;5054178;28;20190;-59
2022/11/21 16:09:54;;;;;;;3.17;2.67;;;;;;;;;;5054023;28;20213;-53
2022/11/21 16:12:20;;;;;;;5.23;3.10;;;;;;;;;;5051945;28;20198;-56
2022/11/21 16:14:46;;;;;;;3.33;2.80;;;;;;;;;;5045070;28;20211;-54
2022/11/21 16:17:13;;;;;;;4.00;2.60;;;;;;;;;;5039512;28;20186;-56
2022/11/21 16:19:39;;;;;;;4.27;2.87;;;;;;;;;;5051655;28;20195;-55
2022/11/21 16:22:04;;;;;;;7.23;3.10;;;;;;;;;;5057103;28;20182;-56
2022/11/21 16:24:30;;;;;;;5.07;3.37;;;;;;;;;;5054006;28;20302;-58
2022/11/21 16:26:57;;;;;;;5.37;3.30;;;;;;;;;;5056503;28;20205;-59
2022/11/21 16:29:23;;;;;;;4.67;2.97;;;;;;;;;;5057977;28;20662;-58
2022/11/21 16:31:54;;;;;;;4.27;3.43;;;;;;;;;;5054224;28;20180;-56
2022/11/21 16:34:21;;;;;;;5.57;4.07;;;8.80;99.90;;;;;;5054667;28;20187;-55
2022/11/21 16:36:47;;;;;;;5.20;4.10;;;;;;;;;;5057778;28;20170;-55
2022/11/21 16:39:13;;;;;;;5.73;4.07;;;;;;;;;;5056336;28;20194;-55
2022/11/21 16:41:39;;;;;;;11.83;9.73;;;;;;;;;;5057350;28;20203;-57
2022/11/21 16:44:12;;;;;;;5.53;4.80;;;8.70;99.90;;;;;;5057251;28;20174;-57
2022/11/21 16:46:41;;;;;;;7.90;6.87;;;;;;;;;;5057395;28;20167;-56
2022/11/21 16:49:08;;;;;;;6.07;4.40;;;8.50;99.90;;;;;;5051319;28;20238;-55
2022/11/21 16:51:34;;;;;;;5.70;4.57;;;;;;;;;;5057025;28;20237;-55
2022/11/21 16:54:00;;;;;;;5.20;3.40;;;8.30;99.90;;;;;;5056857;28;20171;-58
2022/11/21 16:56:26;;;;;;;7.23;4.40;;;;;;;;;;5057972;28;20273;-55
2022/11/21 16:58:52;;;;;;;6.30;4.93;;;;;;;;;;5057633;28;20206;-56
2022/11/21 17:01:20;;;;;;;6.27;4.10;;;8.20;99.90;;;;;;5057492;28;20199;-56
2022/11/21 17:03:47;;;;;;;4.40;3.87;;;8.10;99.90;;;;;;5057223;28;20210;-59
2022/11/21 17:06:16;;;;;;;5.53;3.83;;;8.00;99.90;;;;;;5057905;28;20205;-56
2022/11/21 17:08:42;;;;;;;6.67;4.07;;;;;;;;;;5057972;28;20167;-57
2022/11/21 17:11:16;;;;;;;4.27;3.60;;;8.10;99.90;;;;;;5057787;28;20178;-56
2022/11/21 17:13:44;;;;;;;4.70;3.67;;;8.10;99.90;;;;;;5057031;28;20174;-56
2022/11/21 17:16:11;;;;;;;6.23;3.67;;;7.70;99.90;;;;;;5058354;28;20666;-59
2022/11/21 17:18:37;;;;;;;4.97;3.90;;;7.70;99.90;;;;;;5057866;28;20175;-58
2022/11/21 17:21:06;;;;;;;6.17;3.93;;;7.70;99.90;;;;;;5058742;28;20210;-57
2022/11/21 17:23:32;;;;;;;5.90;3.87;;;7.90;99.90;;;;;;5052126;28;20180;-57
2022/11/21 17:26:02;;;;;;;4.20;3.40;;;8.10;99.90;;;;;;5058256;28;20194;-55
2022/11/21 17:28:29;;;;;;;5.03;3.20;;;7.90;99.90;;;;;;5058139;28;20190;-59
2022/11/21 17:30:55;;;;;;;5.07;3.70;;;;;;;;;;5057639;28;20218;-53
2022/11/21 17:33:20;;;;;;;4.23;3.80;;;7.50;99.90;;;;;;5057056;28;20175;-55
2022/11/21 17:35:46;;;;;;;4.93;3.50;;;7.70;99.90;;;;;;5056415;28;20613;-58
2022/11/21 17:38:12;;;;;;;5.97;3.70;;;7.80;99.90;;;;;;5052666;28;20530;-56
2022/11/21 17:40:38;;;;;;;7.50;3.60;;;7.60;99.90;;;;;;5047732;28;20197;-52
2022/11/21 17:43:04;;;;;;;4.27;3.40;;;;;;;;;;5055049;28;20254;-56
2022/11/21 17:45:30;;;;;;;3.63;3.10;;;;;;;;;;5054624;28;20455;-55
2022/11/21 17:47:56;;;;;;;3.83;3.23;;;;;;;;;;5039928;28;20229;-54
2022/11/21 17:50:21;;;;;;;4.43;3.00;;;7.60;99.90;;;;;;5054785;28;20256;-54
2022/11/21 17:52:49;;;;;;;5.83;3.10;;;7.80;99.90;;;;;;5053830;28;20168;-56
2022/11/21 17:55:15;;;;;;;4.90;3.27;;;;;;;;;;5050274;28;20237;-54
2022/11/21 17:57:41;;;;;;;4.10;3.20;;;;;;;;;;5052611;28;20258;-52
2022/11/21 18:00:07;;;;;;;4.13;3.73;;;7.40;99.90;;;;;;5053842;28;20285;-53
2022/11/21 18:02:32;;;;;;;6.47;4.40;;;7.20;99.90;;;;;;5054993;28;20574;-52
2022/11/21 18:04:58;;;;;;;6.20;5.43;;;;;;;;;;5054973;28;20195;-54
2022/11/21 18:07:24;;;;;;;4.80;4.10;;;;;;;;;;5056147;28;20178;-53
2022/11/21 18:09:51;;;;;;;6.93;6.00;;;;;;;;;;5057873;28;20203;-60
2022/11/21 18:12:17;;;;;;;12.07;9.27;;;;;;;;;;5053890;28;20206;-56
2022/11/21 18:14:42;;;;;;;5.50;4.13;;;7.00;99.90;;;;;;5055404;28;20256;-56
2022/11/21 18:17:08;;;;;;;5.37;4.83;;;;;;;;;;5055969;28;20182;-60
2022/11/21 18:19:34;;;;;;;4.73;4.00;;;;;;;;;;5055779;28;20190;-60
2022/11/21 18:22:00;;;;;;;6.10;5.30;;;7.20;99.90;;;;;;5056449;28;20171;-56
2022/11/21 18:24:26;;;;;;;6.20;5.20;;;7.40;99.90;;;;;;5055428;28;20583;-57
2022/11/21 18:26:52;;;;;;;4.90;4.37;;;;;;;;;;5056916;28;20171;-56
2022/11/21 18:29:20;;;;;;;5.43;4.33;;;;;;;;;;5057071;28;20183;-59
2022/11/21 18:31:46;;;;;;;5.07;4.40;;;;;;;;;;5056969;28;20671;-58
2022/11/21 18:34:12;;;;;;;5.70;5.07;;;;;;;;;;5055262;28;20690;-55
2022/11/21 18:36:38;;;;;;;6.77;4.47;;;7.40;99.90;;;;;;5056310;28;20533;-55
2022/11/21 18:39:03;;;;;;;4.33;3.80;;;7.50;99.90;;;;;;5055714;28;20278;-58
2022/11/21 18:41:32;;;;;;;5.20;3.77;;;7.20;99.90;;;;;;5055417;28;20258;-57
2022/11/21 18:44:01;;;;;;;5.40;4.20;;;7.20;99.90;;;;;;5052314;28;20186;-60
2022/11/21 18:46:28;;;;;;;5.53;4.10;;;7.10;99.90;;;;;;5053689;28;20175;-56
2022/11/21 18:48:54;;;;;;;6.30;4.87;;;7.00;99.90;;;;;;5047224;28;20663;-57
2022/11/21 18:51:22;;;;;;;5.60;4.73;;;7.00;99.90;;;;;;5053104;28;20198;-56
2022/11/21 18:53:55;;;;;;;4.53;4.13;;;;;;;;;;5054468;28;20324;-53
2022/11/21 18:56:21;;;;;;;6.30;5.40;;;6.80;99.90;;;;;;5048180;28;20187;-52
2022/11/21 18:58:48;;;;;;;5.77;4.13;;;;;;;;;;5053791;28;20245;-56
2022/11/21 19:01:16;;;;;;;4.87;4.37;;;7.00;99.90;;;;;;5054481;28;20214;-57
2022/11/21 19:03:42;;;;;;;6.13;4.60;;;7.20;99.90;;;;;;5041904;28;20179;-57
2022/11/21 19:06:16;;;;;;;5.30;4.77;;;8.00;99.90;;;;;;5050592;28;20350;-52
2022/11/21 19:08:54;;;;;;;5.40;4.43;;;6.90;99.90;;;;;;5051432;28;20202;-56
2022/11/21 19:11:23;;;;;;;4.37;3.73;;;7.10;99.90;;;;;;5049266;28;20178;-56
2022/11/21 19:13:49;;;;;;;7.83;4.30;;;7.00;99.90;;;;;;5051178;28;20232;-54
2022/11/21 19:16:17;;;;;;;4.33;3.60;;;6.80;99.90;;;;;;5051619;28;20206;-53
2022/11/21 19:18:43;;;;;;;4.33;3.80;;;5.00;99.90;;;;;;5050391;28;20171;-55
2022/11/21 19:21:11;;;;;;;5.07;4.23;;;6.90;99.90;;;;;;5058485;28;20202;-57
2022/11/21 19:23:39;;;;;;;5.10;4.60;;;6.90;99.90;;;;;;5033623;28;20505;-52
2022/11/21 19:26:07;;;;;;;4.33;3.93;;;6.60;99.90;;;;;;5050632;28;20187;-56
2022/11/21 19:28:33;;;;;;;7.17;4.73;;;6.80;99.90;;;;;;5050920;28;20178;-56
2022/11/21 19:31:00;;;;;;;8.50;5.13;;;6.80;99.90;;;;;;5050621;28;20179;-56
2022/11/21 19:33:29;;;;;;;7.13;6.37;;;6.70;99.90;;;;;;5042611;28;20178;-54
2022/11/21 19:36:10;;;;;;;7.73;6.93;;;6.60;99.90;;;;;;5050016;28;20517;-54
2022/11/21 19:38:36;;;;;;;8.23;7.43;;;7.00;99.90;;;;;;5035134;28;20241;-57
2022/11/21 19:41:15;;;;;;;8.27;7.47;;;;;;;;;;5050680;28;20652;-58
2022/11/21 19:44:00;;;;;;;6.40;5.70;;;6.80;99.90;;;;;;5049683;28;20281;-54
2022/11/21 19:46:29;;;;;;;6.20;5.60;;;6.60;99.90;;;;;;5050506;28;20242;-56
2022/11/21 19:48:56;;;;;;;6.43;5.63;;;6.60;99.90;;;;;;5050603;28;20775;-51
2022/11/21 19:51:27;;;;;;;6.27;5.17;;;6.60;99.90;;;;;;5033317;28;20199;-55
2022/11/21 19:53:53;;;;;;;8.03;5.73;;;;;;;;;;5050597;28;20261;-56
2022/11/21 19:56:21;;;;;;;6.23;5.30;;;6.70;99.90;;;;;;5048180;28;20219;-59
2022/11/21 19:58:47;;;;;;;6.37;5.20;;;7.10;99.90;;;;;;5044837;28;20171;-54
2022/11/21 20:01:21;;;;;;;11.80;8.20;;;6.40;99.90;;;;;;5030086;28;20206;-56
2022/11/21 20:03:52;;;;;;;8.23;6.70;;;6.70;99.90;;;;;;5045059;28;20179;-56
2022/11/21 20:06:23;;;;;;;7.43;6.73;;;6.50;99.90;;;;;;5043238;28;20178;-55
2022/11/21 20:08:51;;;;;;;9.27;7.47;;;6.40;99.90;;;;;;5047913;28;20171;-54
2022/11/21 20:11:17;;;;;;;10.03;7.70;;;;;;;;;;5031562;28;20201;-61
2022/11/21 20:13:44;;;;;;;10.13;8.90;;;6.50;99.90;;;;;;5049199;28;20210;-55
2022/11/21 20:16:29;;;;;;;10.03;9.03;;;6.40;99.90;;;;;;5049680;28;20301;-58
2022/11/21 20:18:58;;;;;;;8.73;7.77;;;6.40;99.90;;;;;;5044624;28;20187;-61
2022/11/21 20:21:24;;;;;;;7.43;6.07;;;;;;;;;;5028497;28;20581;-57
2022/11/21 20:23:50;;;;;;;6.90;5.90;;;;;;;;;;5041477;28;20199;-59
2022/11/21 20:26:17;;;;;;;6.57;5.60;;;6.50;99.90;;;;;;5041475;28;20224;-57
2022/11/21 20:28:44;;;;;;;7.00;5.80;;;6.40;99.90;;;;;;5050401;28;20644;-54
2022/11/21 20:31:11;;;;;;;6.83;6.13;;;6.40;99.90;;;;;;5041055;28;20245;-52
2022/11/21 20:33:42;;;;;;;6.80;6.07;;;6.20;99.90;;;;;;5045570;28;20203;-57
2022/11/21 20:36:10;;;;;;;7.23;6.17;;;7.70;99.90;;;;;;5047287;28;20206;-58
2022/11/21 20:38:36;;;;;;;8.23;7.27;;;6.90;99.90;;;;;;5042199;28;20183;-62
2022/11/21 20:41:03;;;;;;;8.40;6.70;;;6.40;99.90;;;;;;5047903;28;20234;-60
2022/11/21 20:43:29;;;;;;;7.90;7.10;;;;;;;;;;5051906;28;20198;-53
2022/11/21 20:45:54;;;;;;;8.00;6.77;;;6.20;99.90;;;;;;5051190;28;20203;-57
2022/11/21 20:48:20;;;;;;;6.53;5.73;;;6.30;99.90;;;;;;5061488;28;20202;-57
2022/11/21 20:50:50;;;;;;;9.67;6.13;;;6.30;99.90;;;;;;5053770;28;20559;-54
2022/11/21 20:53:16;;;;;;;5.80;5.00;;;6.10;99.90;;;;;;5053840;28;20632;-58
2022/11/21 20:55:42;;;;;;;6.43;5.50;;;;;;;;;;5052606;28;20256;-60
2022/11/21 20:58:08;;;;;;;8.23;6.13;;;;;;;;;;5056524;28;20171;-54
2022/11/21 21:00:34;;;;;;;6.83;5.70;;;;;;;;;;5057753;28;20195;-55
2022/11/21 21:03:00;;;;;;;6.20;5.60;;;;;;;;;;5056819;28;20167;-59
2022/11/21 21:05:26;;;;;;;6.57;5.37;;;;;;;;;;5051447;28;20208;-54
2022/11/21 21:07:52;;;;;;;8.53;7.13;;;6.00;99.90;;;;;;5055872;28;20243;-57
2022/11/21 21:10:19;;;;;;;7.03;5.80;;;6.10;99.90;;;;;;5057449;28;20258;-59
2022/11/21 21:12:45;;;;;;;7.00;6.30;;;;;;;;;;5054154;28;20179;-56
2022/11/21 21:15:10;;;;;;;7.50;6.70;;;6.10;99.90;;;;;;5051533;28;20236;-54
2022/11/21 21:17:36;;;;;;;9.23;6.70;;;6.00;99.90;;;;;;5050689;28;20282;-56
2022/11/21 21:20:02;;;;;;;8.30;6.47;;;6.00;99.90;;;;;;5054954;28;20681;-56
2022/11/21 21:22:28;;;;;;;8.30;6.50;;;;;;;;;;5055274;28;20302;-55
2022/11/21 21:24:54;;;;;;;7.10;6.40;;;;;;;;;;5054446;28;20540;-57
2022/11/21 21:27:20;;;;;;;7.43;6.57;;;;;;;;;;5054815;28;20168;-61
2022/11/21 21:29:46;;;;;;;8.40;6.67;;;;;;;;;;5055078;28;20167;-61
2022/11/21 21:32:12;;;;;;;6.80;6.00;;;;;;;;;;5045027;28;20176;-56
2022/11/21 21:34:38;;;;;;;6.90;6.20;;;;;;;;;;5045371;28;20695;-57
2022/11/21 21:37:04;;;;;;;7.37;6.53;;;;;;;;;;5049485;28;20173;-56
2022/11/21 21:39:30;;;;;;;7.73;6.57;;;;;;;;;;5046751;28;20635;-57
2022/11/21 21:41:56;;;;;;;7.50;6.23;;;;;;;;;;5052495;28;20171;-56
2022/11/21 21:44:21;;;;;;;6.53;5.80;;;6.10;99.90;;;;;;5044484;28;20195;-57
2022/11/21 21:46:47;;;;;;;7.40;6.33;;;;;;;;;;5026962;28;20651;-61
2022/11/21 21:49:13;;;;;;;6.67;5.97;;;;;;;;;;5045707;28;20179;-62
2022/11/21 21:51:40;;;;;;;6.73;6.03;;;;;;;;;;5054116;28;20564;-58
2022/11/21 21:54:06;;;;;;;8.03;6.17;;;;;;;;;;5054640;28;20170;-62
2022/11/21 21:56:32;;;;;;;7.10;5.73;;;6.10;99.90;;;;;;5045565;28;20179;-61